createdAt,value
2022-10-13T00:00:43.375Z,0.00
2022-10-13T00:01:43.291Z,0.00
2022-10-13T00:02:43.328Z,0.00
2022-10-13T00:03:43.312Z,0.00
2022-10-13T00:04:43.263Z,0.00
2022-10-13T00:05:43.618Z,0.00
2022-10-13T00:06:43.247Z,0.00
2022-10-13T00:07:43.767Z,0.00
2022-10-13T00:08:43.238Z,0.00
2022-10-13T00:09:43.223Z,0.00
2022-10-13T00:10:43.216Z,0.00
2022-10-13T00:11:43.247Z,0.00
2022-10-13T00:12:43.195Z,0.00
2022-10-13T00:13:43.172Z,0.00
2022-10-13T00:14:43.176Z,0.00
2022-10-13T00:15:43.761Z,0.00
2022-10-13T00:16:43.135Z,0.00
2022-10-13T00:17:43.167Z,0.00
2022-10-13T00:18:43.116Z,0.00
2022-10-13T00:19:43.277Z,0.00
2022-10-13T00:20:43.086Z,0.00
2022-10-13T00:21:49.630Z,0.00
2022-10-13T00:22:43.056Z,0.00
2022-10-13T00:23:43.048Z,0.00
2022-10-13T00:24:43.050Z,0.00
2022-10-13T00:25:43.051Z,0.00
2022-10-13T00:26:43.026Z,0.00
2022-10-13T00:27:43.020Z,0.00
2022-10-13T00:28:43.013Z,0.00
2022-10-13T00:29:42.983Z,0.00
2022-10-13T00:30:42.996Z,0.00
2022-10-13T00:31:42.990Z,0.00
2022-10-13T00:32:42.952Z,0.00
2022-10-13T00:33:42.989Z,0.00
2022-10-13T00:34:42.940Z,0.00
2022-10-13T00:35:42.991Z,0.00
2022-10-13T00:36:42.909Z,0.00
2022-10-13T00:37:42.973Z,0.00
2022-10-13T00:38:42.907Z,0.00
2022-10-13T00:39:42.877Z,0.00
2022-10-13T00:40:42.865Z,0.00
2022-10-13T00:41:42.876Z,0.00
2022-10-13T00:42:42.854Z,0.00
2022-10-13T00:43:42.851Z,0.00
2022-10-13T00:44:42.855Z,0.00
2022-10-13T00:45:42.848Z,0.00
2022-10-13T00:46:42.836Z,0.00
2022-10-13T00:47:42.791Z,0.00
2022-10-13T00:48:42.823Z,0.00
2022-10-13T00:49:42.769Z,0.00
2022-10-13T00:50:42.791Z,0.00
2022-10-13T00:51:42.774Z,0.00
2022-10-13T00:52:42.757Z,0.00
2022-10-13T00:53:42.747Z,0.00
2022-10-13T00:54:42.726Z,0.00
2022-10-13T00:55:42.751Z,0.00
2022-10-13T00:56:42.694Z,0.00
2022-10-13T00:57:42.750Z,0.00
2022-10-13T00:58:42.673Z,0.00
2022-10-13T00:59:42.707Z,0.00
2022-10-13T01:00:42.717Z,0.00
2022-10-13T01:01:42.664Z,0.00
2022-10-13T01:02:42.653Z,0.00
2022-10-13T01:03:42.622Z,0.00
2022-10-13T01:04:42.620Z,0.00
2022-10-13T01:05:42.598Z,0.00
2022-10-13T01:06:42.591Z,0.00
2022-10-13T01:07:42.596Z,0.00
2022-10-13T01:08:42.576Z,0.00
2022-10-13T01:09:42.549Z,0.00
2022-10-13T01:10:42.577Z,0.00
2022-10-13T01:11:42.534Z,0.00
2022-10-13T01:12:42.542Z,0.00
2022-10-13T01:13:42.506Z,0.00
2022-10-13T01:14:42.513Z,0.00
2022-10-13T01:15:42.515Z,0.00
2022-10-13T01:16:42.528Z,0.00
2022-10-13T01:17:42.523Z,0.00
2022-10-13T01:18:42.484Z,0.00
2022-10-13T01:19:42.447Z,0.00
2022-10-13T01:20:42.446Z,0.00
2022-10-13T01:21:42.428Z,0.00
2022-10-13T01:22:42.395Z,0.00
2022-10-13T01:23:42.407Z,0.00
2022-10-13T01:24:42.387Z,0.00
2022-10-13T01:25:42.364Z,0.00
2022-10-13T01:26:42.359Z,0.00
2022-10-13T01:27:42.355Z,0.00
2022-10-13T01:28:42.423Z,0.00
2022-10-13T01:29:42.339Z,0.00
2022-10-13T01:30:42.335Z,0.00
2022-10-13T01:31:42.298Z,0.00
2022-10-13T01:32:42.296Z,0.00
2022-10-13T01:33:42.282Z,0.00
2022-10-13T01:34:42.294Z,0.00
2022-10-13T01:35:42.277Z,0.00
2022-10-13T01:36:42.252Z,0.00
2022-10-13T01:37:42.245Z,0.00
2022-10-13T01:38:42.261Z,0.00
2022-10-13T01:39:42.307Z,0.00
2022-10-13T01:40:42.225Z,0.00
2022-10-13T01:41:42.210Z,0.00
2022-10-13T01:42:42.207Z,0.00
2022-10-13T01:43:42.186Z,0.00
2022-10-13T01:44:42.197Z,0.00
2022-10-13T01:45:42.163Z,0.00
2022-10-13T01:46:42.151Z,0.00
2022-10-13T01:47:42.132Z,0.00
2022-10-13T01:48:42.125Z,0.00
2022-10-13T01:49:42.105Z,0.00
2022-10-13T01:50:42.120Z,0.00
2022-10-13T01:51:42.089Z,0.00
2022-10-13T01:52:42.078Z,0.00
2022-10-13T01:53:42.078Z,0.00
2022-10-13T01:54:42.049Z,0.00
2022-10-13T01:55:42.067Z,0.00
2022-10-13T01:56:42.045Z,0.00
2022-10-13T01:57:42.021Z,0.00
2022-10-13T01:58:42.010Z,0.00
2022-10-13T01:59:42.023Z,0.00
2022-10-13T02:00:42.053Z,0.00
2022-10-13T02:01:41.995Z,0.00
2022-10-13T02:02:41.970Z,0.00
2022-10-13T02:03:41.955Z,0.00
2022-10-13T02:04:41.940Z,0.00
2022-10-13T02:05:41.945Z,0.00
2022-10-13T02:06:41.941Z,0.00
2022-10-13T02:07:41.915Z,0.00
2022-10-13T02:08:41.901Z,0.00
2022-10-13T02:09:41.884Z,0.00
2022-10-13T02:10:41.897Z,0.00
2022-10-13T02:11:41.869Z,0.00
2022-10-13T02:12:41.876Z,0.00
2022-10-13T02:13:41.862Z,0.00
2022-10-13T02:14:41.833Z,0.00
2022-10-13T02:15:41.824Z,0.00
2022-10-13T02:16:41.819Z,0.00
2022-10-13T02:17:41.831Z,0.00
2022-10-13T02:18:41.786Z,0.00
2022-10-13T02:19:41.782Z,0.00
2022-10-13T02:20:41.781Z,0.00
2022-10-13T02:21:41.752Z,0.00
2022-10-13T02:22:41.775Z,0.00
2022-10-13T02:23:41.740Z,0.00
2022-10-13T02:24:41.729Z,0.00
2022-10-13T02:25:41.752Z,0.00
2022-10-13T02:26:41.764Z,0.00
2022-10-13T02:27:41.715Z,0.00
2022-10-13T02:28:40.800Z,0.00
2022-10-13T02:29:41.673Z,0.00
2022-10-13T02:30:41.665Z,0.00
2022-10-13T02:31:41.658Z,0.00
2022-10-13T02:32:41.646Z,0.00
2022-10-13T02:33:41.639Z,0.00
2022-10-13T02:34:41.633Z,0.00
2022-10-13T02:35:41.617Z,0.00
2022-10-13T02:36:41.603Z,0.00
2022-10-13T02:37:41.603Z,0.00
2022-10-13T02:38:41.600Z,0.00
2022-10-13T02:39:41.576Z,0.00
2022-10-13T02:40:41.549Z,0.00
2022-10-13T02:41:41.560Z,0.00
2022-10-13T02:42:41.537Z,0.00
2022-10-13T02:43:41.521Z,0.00
2022-10-13T02:44:41.538Z,0.00
2022-10-13T02:45:41.529Z,0.00
2022-10-13T02:46:41.490Z,0.00
2022-10-13T02:47:41.472Z,0.00
2022-10-13T02:48:41.473Z,0.00
2022-10-13T02:49:41.445Z,0.00
2022-10-13T02:50:41.447Z,0.00
2022-10-13T02:51:41.457Z,0.00
2022-10-13T02:52:41.417Z,0.00
2022-10-13T02:53:41.410Z,0.00
2022-10-13T02:54:41.405Z,0.00
2022-10-13T02:55:41.385Z,0.00
2022-10-13T02:56:41.386Z,0.00
2022-10-13T02:57:41.397Z,0.00
2022-10-13T02:58:41.366Z,0.00
2022-10-13T02:59:41.340Z,0.00
2022-10-13T03:00:41.441Z,0.00
2022-10-13T03:01:41.325Z,0.00
2022-10-13T03:02:41.313Z,0.00
2022-10-13T03:03:41.314Z,0.00
2022-10-13T03:04:41.292Z,0.00
2022-10-13T03:05:41.284Z,0.00
2022-10-13T03:06:41.268Z,0.00
2022-10-13T03:07:41.267Z,0.00
2022-10-13T03:08:41.252Z,0.00
2022-10-13T03:09:41.317Z,0.00
2022-10-13T03:10:41.252Z,0.00
2022-10-13T03:11:41.258Z,0.00
2022-10-13T03:12:41.250Z,0.00
2022-10-13T03:13:41.185Z,0.00
2022-10-13T03:14:41.242Z,0.00
2022-10-13T03:15:41.209Z,0.00
2022-10-13T03:16:41.161Z,0.00
2022-10-13T03:17:41.157Z,0.00
2022-10-13T03:18:41.149Z,0.00
2022-10-13T03:19:41.137Z,0.00
2022-10-13T03:20:41.119Z,0.00
2022-10-13T03:21:41.152Z,0.00
2022-10-13T03:22:41.134Z,0.00
2022-10-13T03:23:41.102Z,0.00
2022-10-13T03:24:41.096Z,0.00
2022-10-13T03:25:41.099Z,0.00
2022-10-13T03:26:41.070Z,0.00
2022-10-13T03:27:41.084Z,0.00
2022-10-13T03:28:41.064Z,0.00
2022-10-13T03:29:41.026Z,0.00
2022-10-13T03:30:40.998Z,0.00
2022-10-13T03:31:40.988Z,0.00
2022-10-13T03:32:40.994Z,0.00
2022-10-13T03:33:41.030Z,0.00
2022-10-13T03:34:41.004Z,0.00
2022-10-13T03:35:40.958Z,0.00
2022-10-13T03:36:40.955Z,0.00
2022-10-13T03:37:40.962Z,0.00
2022-10-13T03:38:40.939Z,0.00
2022-10-13T03:39:40.939Z,0.00
2022-10-13T03:40:40.917Z,0.00
2022-10-13T03:41:40.924Z,0.00
2022-10-13T03:42:40.913Z,0.00
2022-10-13T03:43:40.905Z,0.00
2022-10-13T03:44:40.910Z,0.00
2022-10-13T03:45:40.863Z,0.00
2022-10-13T03:46:40.836Z,0.00
2022-10-13T03:47:40.814Z,0.00
2022-10-13T03:48:40.824Z,0.00
2022-10-13T03:49:40.791Z,0.00
2022-10-13T03:50:40.822Z,0.00
2022-10-13T03:51:40.785Z,0.00
2022-10-13T03:52:40.766Z,0.00
2022-10-13T03:53:40.769Z,0.00
2022-10-13T03:54:40.740Z,0.00
2022-10-13T03:55:40.727Z,0.00
2022-10-13T03:56:40.708Z,0.00
2022-10-13T03:57:40.730Z,0.00
2022-10-13T03:58:40.715Z,0.00
2022-10-13T03:59:40.682Z,0.00
2022-10-13T04:00:40.677Z,0.00
2022-10-13T04:01:40.744Z,0.00
2022-10-13T04:02:40.659Z,0.00
2022-10-13T04:03:40.674Z,0.00
2022-10-13T04:04:40.658Z,0.00
2022-10-13T04:05:40.609Z,0.00
2022-10-13T04:06:40.659Z,0.00
2022-10-13T04:07:40.591Z,0.00
2022-10-13T04:08:40.590Z,0.00
2022-10-13T04:09:40.602Z,0.00
2022-10-13T04:10:40.574Z,0.00
2022-10-13T04:11:40.557Z,0.00
2022-10-13T04:12:40.540Z,0.00
2022-10-13T04:13:40.556Z,0.00
2022-10-13T04:14:40.525Z,0.00
2022-10-13T04:15:40.534Z,0.00
2022-10-13T04:16:40.527Z,0.00
2022-10-13T04:17:40.490Z,0.00
2022-10-13T04:18:44.465Z,0.00
2022-10-13T04:19:40.471Z,0.00
2022-10-13T04:20:40.480Z,0.00
2022-10-13T04:21:40.520Z,0.00
2022-10-13T04:22:40.450Z,0.00
2022-10-13T04:23:40.430Z,0.00
2022-10-13T04:24:40.457Z,0.00
2022-10-13T04:25:40.436Z,0.00
2022-10-13T04:26:40.414Z,0.00
2022-10-13T04:27:40.418Z,0.00
2022-10-13T04:28:40.528Z,0.00
2022-10-13T04:29:40.394Z,0.00
2022-10-13T04:30:40.400Z,0.00
2022-10-13T04:31:40.324Z,0.00
2022-10-13T04:32:40.394Z,0.00
2022-10-13T04:33:40.361Z,0.00
2022-10-13T04:34:40.313Z,0.00
2022-10-13T04:35:40.311Z,0.00
2022-10-13T04:36:40.309Z,0.00
2022-10-13T04:37:44.794Z,0.00
2022-10-13T04:38:40.273Z,0.00
2022-10-13T04:39:40.273Z,0.00
2022-10-13T04:40:40.279Z,0.00
2022-10-13T04:41:40.227Z,0.00
2022-10-13T04:42:40.222Z,0.00
2022-10-13T04:43:40.215Z,0.00
2022-10-13T04:44:40.206Z,0.00
2022-10-13T04:45:40.186Z,0.00
2022-10-13T04:46:40.174Z,0.00
2022-10-13T04:47:40.171Z,0.00
2022-10-13T04:48:40.152Z,0.00
2022-10-13T04:49:40.156Z,0.00
2022-10-13T04:50:40.150Z,0.00
2022-10-13T04:51:40.228Z,0.00
2022-10-13T04:52:40.104Z,0.00
2022-10-13T04:53:40.156Z,0.00
2022-10-13T04:54:40.100Z,0.00
2022-10-13T04:55:40.079Z,0.00
2022-10-13T04:56:40.070Z,0.00
2022-10-13T04:57:40.067Z,0.00
2022-10-13T04:58:40.068Z,0.00
2022-10-13T04:59:40.047Z,0.00
2022-10-13T05:00:40.065Z,0.00
2022-10-13T05:01:40.004Z,0.00
2022-10-13T05:02:39.992Z,0.00
2022-10-13T05:03:40.007Z,0.00
2022-10-13T05:04:39.973Z,0.00
2022-10-13T05:05:39.964Z,0.00
2022-10-13T05:06:58.937Z,0.00
2022-10-13T05:07:40.001Z,0.00
2022-10-13T05:08:39.943Z,0.00
2022-10-13T05:09:39.987Z,0.00
2022-10-13T05:10:39.920Z,0.00
2022-10-13T05:11:39.927Z,0.00
2022-10-13T05:12:39.948Z,0.00
2022-10-13T05:13:39.874Z,0.00
2022-10-13T05:14:39.910Z,0.00
2022-10-13T05:15:39.927Z,0.00
2022-10-13T05:16:39.878Z,4.00
2022-10-13T05:17:39.837Z,0.00
2022-10-13T05:18:39.864Z,0.00
2022-10-13T05:19:39.816Z,4.00
2022-10-13T05:20:39.810Z,4.00
2022-10-13T05:21:39.805Z,0.00
2022-10-13T05:22:39.798Z,4.00
2022-10-13T05:23:39.782Z,4.00
2022-10-13T05:24:39.760Z,4.00
2022-10-13T05:25:39.771Z,8.00
2022-10-13T05:26:39.723Z,8.00
2022-10-13T05:27:39.756Z,8.00
2022-10-13T05:28:39.777Z,12.00
2022-10-13T05:29:39.703Z,12.00
2022-10-13T05:30:39.695Z,16.00
2022-10-13T05:31:39.692Z,16.00
2022-10-13T05:32:39.665Z,20.00
2022-10-13T05:33:39.702Z,20.00
2022-10-13T05:34:39.651Z,24.00
2022-10-13T05:35:39.667Z,24.00
2022-10-13T05:36:39.615Z,32.00
2022-10-13T05:37:39.607Z,32.00
2022-10-13T05:38:39.602Z,36.00
2022-10-13T05:39:39.621Z,40.00
2022-10-13T05:40:39.598Z,44.00
2022-10-13T05:41:39.573Z,44.00
2022-10-13T05:42:39.552Z,48.00
2022-10-13T05:43:39.608Z,56.00
2022-10-13T05:44:39.592Z,60.00
2022-10-13T05:45:39.565Z,64.00
2022-10-13T05:46:39.532Z,68.00
2022-10-13T05:47:39.500Z,76.00
2022-10-13T05:48:39.497Z,76.00
2022-10-13T05:49:39.482Z,84.00
2022-10-13T05:50:39.470Z,88.00
2022-10-13T05:51:39.484Z,92.00
2022-10-13T05:52:39.448Z,96.00
2022-10-13T05:53:39.436Z,100.00
2022-10-13T05:54:39.426Z,104.00
2022-10-13T05:55:39.420Z,116.00
2022-10-13T05:56:39.396Z,120.00
2022-10-13T05:57:39.415Z,128.00
2022-10-13T05:58:39.383Z,144.00
2022-10-13T05:59:39.373Z,152.00
2022-10-13T06:00:39.368Z,168.00
2022-10-13T06:01:39.429Z,180.00
2022-10-13T06:02:39.339Z,192.00
2022-10-13T06:03:39.357Z,208.00
2022-10-13T06:04:39.334Z,224.00
2022-10-13T06:05:39.315Z,240.00
2022-10-13T06:06:39.339Z,252.00
2022-10-13T06:07:39.277Z,260.00
2022-10-13T06:08:39.282Z,264.00
2022-10-13T06:09:39.293Z,272.00
2022-10-13T06:10:39.269Z,272.00
2022-10-13T06:11:39.287Z,280.00
2022-10-13T06:12:39.253Z,288.00
2022-10-13T06:13:39.232Z,296.00
2022-10-13T06:14:39.216Z,312.00
2022-10-13T06:15:39.271Z,324.00
2022-10-13T06:16:39.193Z,340.00
2022-10-13T06:17:39.182Z,360.00
2022-10-13T06:18:39.178Z,372.00
2022-10-13T06:19:39.269Z,380.00
2022-10-13T06:20:39.159Z,396.00
2022-10-13T06:21:39.150Z,404.00
2022-10-13T06:22:45.675Z,416.00
2022-10-13T06:23:39.093Z,424.00
2022-10-13T06:24:39.083Z,432.00
2022-10-13T06:25:39.074Z,432.00
2022-10-13T06:26:39.064Z,448.00
2022-10-13T06:27:39.068Z,484.00
2022-10-13T06:28:39.146Z,520.00
2022-10-13T06:29:39.063Z,560.00
2022-10-13T06:30:39.056Z,600.00
2022-10-13T06:31:39.013Z,648.00
2022-10-13T06:32:39.020Z,700.00
2022-10-13T06:33:39.006Z,748.00
2022-10-13T06:34:38.982Z,804.00
2022-10-13T06:35:38.972Z,848.00
2022-10-13T06:36:38.978Z,892.00
2022-10-13T06:37:38.945Z,940.00
2022-10-13T06:38:38.931Z,988.00
2022-10-13T06:39:38.980Z,1036.00
2022-10-13T06:40:38.915Z,1084.00
2022-10-13T06:41:38.950Z,1120.00
2022-10-13T06:42:38.891Z,1152.00
2022-10-13T06:43:40.611Z,1168.00
2022-10-13T06:44:38.868Z,1176.00
2022-10-13T06:45:38.868Z,1180.00
2022-10-13T06:46:38.862Z,1184.00
2022-10-13T06:47:38.919Z,1192.00
2022-10-13T06:48:38.826Z,1192.00
2022-10-13T06:49:38.812Z,1200.00
2022-10-13T06:50:42.758Z,1204.00
2022-10-13T06:51:38.813Z,1212.00
2022-10-13T06:52:38.787Z,1224.00
2022-10-13T06:53:38.767Z,1232.00
2022-10-13T06:54:38.771Z,1232.00
2022-10-13T06:55:38.747Z,1228.00
2022-10-13T06:56:38.746Z,1220.00
2022-10-13T06:57:38.767Z,1200.00
2022-10-13T06:58:38.724Z,1180.00
2022-10-13T06:59:38.702Z,1184.00
2022-10-13T07:00:38.751Z,1188.00
2022-10-13T07:01:41.599Z,1196.00
2022-10-13T07:02:38.679Z,1200.00
2022-10-13T07:03:38.676Z,1196.00
2022-10-13T07:04:38.665Z,1200.00
2022-10-13T07:05:38.645Z,1208.00
2022-10-13T07:06:38.639Z,1212.00
2022-10-13T07:07:38.673Z,1228.00
2022-10-13T07:08:38.612Z,1260.00
2022-10-13T07:09:38.628Z,1296.00
2022-10-13T07:10:38.602Z,1336.00
2022-10-13T07:11:38.605Z,1372.00
2022-10-13T07:12:38.576Z,1412.00
2022-10-13T07:13:41.029Z,1448.00
2022-10-13T07:14:40.473Z,1468.00
2022-10-13T07:15:38.583Z,1496.00
2022-10-13T07:16:38.531Z,1524.00
2022-10-13T07:17:38.511Z,1556.00
2022-10-13T07:18:38.503Z,1580.00
2022-10-13T07:19:38.513Z,1604.00
2022-10-13T07:20:38.495Z,1628.00
2022-10-13T07:21:38.490Z,1656.00
2022-10-13T07:22:38.457Z,1692.00
2022-10-13T07:23:38.460Z,1728.00
2022-10-13T07:24:38.442Z,1756.00
2022-10-13T07:25:38.421Z,1784.00
2022-10-13T07:26:38.433Z,1808.00
2022-10-13T07:27:38.431Z,1828.00
2022-10-13T07:28:38.465Z,1836.00
2022-10-13T07:29:38.387Z,1852.00
2022-10-13T07:30:38.390Z,1864.00
2022-10-13T07:31:38.360Z,1888.00
2022-10-13T07:32:38.363Z,1916.00
2022-10-13T07:33:38.358Z,1940.00
2022-10-13T07:34:38.337Z,1956.00
2022-10-13T07:35:38.378Z,1964.00
2022-10-13T07:36:38.566Z,1960.00
2022-10-13T07:37:38.294Z,1952.00
2022-10-13T07:38:38.319Z,1952.00
2022-10-13T07:39:38.297Z,1952.00
2022-10-13T07:40:38.263Z,1944.00
2022-10-13T07:41:38.264Z,1936.00
2022-10-13T07:42:38.269Z,1916.00
2022-10-13T07:43:38.227Z,1896.00
2022-10-13T07:44:38.263Z,1876.00
2022-10-13T07:45:38.249Z,1860.00
2022-10-13T07:46:38.201Z,1856.00
2022-10-13T07:47:38.199Z,1868.00
2022-10-13T07:48:38.204Z,1896.00
2022-10-13T07:49:38.166Z,1936.00
2022-10-13T07:50:38.152Z,1988.00
2022-10-13T07:51:38.174Z,2052.00
2022-10-13T07:52:38.139Z,2120.00
2022-10-13T07:53:38.147Z,2176.00
2022-10-13T07:54:38.118Z,2236.00
2022-10-13T07:55:38.105Z,2284.00
2022-10-13T07:56:38.108Z,2324.00
2022-10-13T07:57:38.116Z,2372.00
2022-10-13T07:58:38.071Z,2428.00
2022-10-13T07:59:38.063Z,2500.00
2022-10-13T08:00:38.054Z,2588.00
2022-10-13T08:01:38.101Z,2696.00
2022-10-13T08:02:38.035Z,2796.00
2022-10-13T08:03:38.045Z,2884.00
2022-10-13T08:04:38.022Z,2956.00
2022-10-13T08:05:38.025Z,3020.00
2022-10-13T08:06:38.077Z,3064.00
2022-10-13T08:07:37.983Z,3096.00
2022-10-13T08:08:37.987Z,3104.00
2022-10-13T08:09:37.964Z,3088.00
2022-10-13T08:10:37.947Z,3052.00
2022-10-13T08:11:37.982Z,3000.00
2022-10-13T08:12:37.931Z,2944.00
2022-10-13T08:13:37.908Z,2880.00
2022-10-13T08:14:38.023Z,2820.00
2022-10-13T08:15:37.895Z,2776.00
2022-10-13T08:16:37.867Z,2748.00
2022-10-13T08:17:37.896Z,2724.00
2022-10-13T08:18:37.850Z,2720.00
2022-10-13T08:19:37.836Z,2724.00
2022-10-13T08:20:43.335Z,2736.00
2022-10-13T08:21:58.372Z,2764.00
2022-10-13T08:22:37.811Z,2796.00
2022-10-13T08:23:37.802Z,2840.00
2022-10-13T08:24:37.792Z,2892.00
2022-10-13T08:25:37.770Z,2952.00
2022-10-13T08:26:37.759Z,3016.00
2022-10-13T08:27:50.632Z,3080.00
2022-10-13T08:28:37.788Z,3140.00
2022-10-13T08:29:37.774Z,3200.00
2022-10-13T08:30:37.861Z,3260.00
2022-10-13T08:31:37.915Z,3312.00
2022-10-13T08:32:37.686Z,3376.00
2022-10-13T08:33:37.724Z,3440.00
2022-10-13T08:34:37.663Z,3504.00
2022-10-13T08:35:37.654Z,3560.00
2022-10-13T08:36:37.640Z,3600.00
2022-10-13T08:37:37.684Z,3636.00
2022-10-13T08:38:37.625Z,3664.00
2022-10-13T08:39:37.646Z,3680.00
2022-10-13T08:40:37.604Z,3708.00
2022-10-13T08:41:37.613Z,3736.00
2022-10-13T08:42:37.589Z,3772.00
2022-10-13T08:43:49.048Z,3800.00
2022-10-13T08:45:42.089Z,3856.00
2022-10-13T08:46:37.539Z,3876.00
2022-10-13T08:47:37.527Z,3888.00
2022-10-13T08:48:37.517Z,3884.00
2022-10-13T08:49:38.852Z,3880.00
2022-10-13T08:50:37.503Z,3872.00
2022-10-13T08:51:37.496Z,3864.00
2022-10-13T08:52:37.487Z,3860.00
2022-10-13T08:53:37.483Z,3852.00
2022-10-13T08:54:37.446Z,3852.00
2022-10-13T08:55:37.441Z,3852.00
2022-10-13T08:56:37.428Z,3848.00
2022-10-13T08:57:37.434Z,3848.00
2022-10-13T08:58:37.407Z,3840.00
2022-10-13T08:59:37.407Z,3828.00
2022-10-13T09:00:37.379Z,3816.00
2022-10-13T09:01:37.406Z,3792.00
2022-10-13T09:02:37.355Z,3780.00
2022-10-13T09:03:37.382Z,3756.00
2022-10-13T09:04:37.351Z,3732.00
2022-10-13T09:05:37.331Z,3704.00
2022-10-13T09:06:37.316Z,3664.00
2022-10-13T09:07:37.310Z,3624.00
2022-10-13T09:08:37.295Z,3552.00
2022-10-13T09:09:37.307Z,3488.00
2022-10-13T09:10:37.290Z,3408.00
2022-10-13T09:11:37.258Z,3316.00
2022-10-13T09:12:37.361Z,3252.00
2022-10-13T09:13:37.307Z,3212.00
2022-10-13T09:14:37.241Z,3156.00
2022-10-13T09:15:37.241Z,3168.00
2022-10-13T09:16:37.242Z,3136.00
2022-10-13T09:17:37.203Z,3116.00
2022-10-13T09:18:37.192Z,3224.00
2022-10-13T09:19:37.170Z,3228.00
2022-10-13T09:20:37.161Z,3292.00
2022-10-13T09:21:37.201Z,3592.00
2022-10-13T09:22:37.150Z,3856.00
2022-10-13T09:23:41.021Z,3916.00
2022-10-13T09:24:37.130Z,4400.00
2022-10-13T09:25:37.106Z,4740.00
2022-10-13T09:26:37.111Z,5088.00
2022-10-13T09:27:37.124Z,5300.00
2022-10-13T09:28:37.132Z,5468.00
2022-10-13T09:29:37.074Z,5280.00
2022-10-13T09:30:37.060Z,5300.00
2022-10-13T09:31:37.053Z,5524.00
2022-10-13T09:32:37.049Z,5824.00
2022-10-13T09:33:37.044Z,5868.00
2022-10-13T09:34:37.015Z,6000.00
2022-10-13T09:35:37.012Z,6192.00
2022-10-13T09:36:37.092Z,6060.00
2022-10-13T09:37:36.979Z,5800.00
2022-10-13T09:38:36.997Z,5668.00
2022-10-13T09:39:36.976Z,5492.00
2022-10-13T09:40:36.986Z,5236.00
2022-10-13T09:41:36.936Z,5212.00
2022-10-13T09:42:36.938Z,5320.00
2022-10-13T09:43:36.911Z,5352.00
2022-10-13T09:44:36.898Z,5472.00
2022-10-13T09:45:36.915Z,5516.00
2022-10-13T09:46:36.892Z,5452.00
2022-10-13T09:47:36.880Z,5092.00
2022-10-13T09:48:36.864Z,4476.00
2022-10-13T09:49:36.855Z,3780.00
2022-10-13T09:50:36.850Z,3356.00
2022-10-13T09:51:36.881Z,3172.00
2022-10-13T09:52:36.814Z,2872.00
2022-10-13T09:53:36.804Z,2608.00
2022-10-13T09:54:36.799Z,2480.00
2022-10-13T09:55:36.788Z,2444.00
2022-10-13T09:56:36.786Z,2424.00
2022-10-13T09:57:36.804Z,2416.00
2022-10-13T09:58:36.795Z,2448.00
2022-10-13T09:59:36.774Z,2504.00
2022-10-13T10:00:36.748Z,2584.00
2022-10-13T10:01:36.747Z,2656.00
2022-10-13T10:02:36.733Z,2780.00
2022-10-13T10:03:36.790Z,2940.00
2022-10-13T10:04:36.684Z,3068.00
2022-10-13T10:05:36.698Z,3216.00
2022-10-13T10:06:36.701Z,3524.00
2022-10-13T10:07:36.651Z,3792.00
2022-10-13T10:08:57.996Z,3796.00
2022-10-13T10:09:36.658Z,3464.00
2022-10-13T10:10:36.620Z,3092.00
2022-10-13T10:11:36.610Z,2960.00
2022-10-13T10:12:36.595Z,2940.00
2022-10-13T10:13:36.597Z,2952.00
2022-10-13T10:14:36.581Z,2968.00
2022-10-13T10:15:36.601Z,2952.00
2022-10-13T10:16:36.565Z,2992.00
2022-10-13T10:17:36.531Z,2924.00
2022-10-13T10:18:36.524Z,2788.00
2022-10-13T10:19:36.520Z,2632.00
2022-10-13T10:20:36.543Z,2720.00
2022-10-13T10:21:36.516Z,3180.00
2022-10-13T10:22:36.490Z,3632.00
2022-10-13T10:23:36.489Z,3864.00
2022-10-13T10:24:36.474Z,3920.00
2022-10-13T10:25:36.457Z,3956.00
2022-10-13T10:26:36.442Z,3956.00
2022-10-13T10:27:38.946Z,4180.00
2022-10-13T10:28:36.459Z,4456.00
2022-10-13T10:29:36.417Z,4596.00
2022-10-13T10:30:36.399Z,4612.00
2022-10-13T10:31:36.379Z,4584.00
2022-10-13T10:32:36.423Z,4584.00
2022-10-13T10:33:36.364Z,4620.00
2022-10-13T10:34:36.356Z,4624.00
2022-10-13T10:35:36.339Z,4640.00
2022-10-13T10:36:36.325Z,4624.00
2022-10-13T10:37:36.349Z,4632.00
2022-10-13T10:38:36.323Z,4616.00
2022-10-13T10:39:36.291Z,4616.00
2022-10-13T10:40:36.290Z,4576.00
2022-10-13T10:41:36.281Z,4560.00
2022-10-13T10:42:36.314Z,4504.00
2022-10-13T10:43:36.254Z,4444.00
2022-10-13T10:44:36.290Z,4428.00
2022-10-13T10:45:36.240Z,4368.00
2022-10-13T10:46:36.219Z,4348.00
2022-10-13T10:47:36.232Z,4280.00
2022-10-13T10:48:36.203Z,4240.00
2022-10-13T10:49:36.209Z,4164.00
2022-10-13T10:50:36.184Z,4088.00
2022-10-13T10:51:36.168Z,4016.00
2022-10-13T10:52:44.401Z,3976.00
2022-10-13T10:53:36.142Z,3940.00
2022-10-13T10:54:36.168Z,3928.00
2022-10-13T10:55:36.116Z,3880.00
2022-10-13T10:56:36.114Z,3912.00
2022-10-13T10:57:36.112Z,3880.00
2022-10-13T10:58:36.106Z,3900.00
2022-10-13T10:59:36.087Z,3908.00
2022-10-13T11:00:36.070Z,3916.00
2022-10-13T11:01:36.070Z,3916.00
2022-10-13T11:02:36.065Z,3904.00
2022-10-13T11:03:36.045Z,3836.00
2022-10-13T11:04:36.063Z,3972.00
2022-10-13T11:05:36.016Z,4080.00
2022-10-13T11:06:36.011Z,4232.00
2022-10-13T11:07:36.000Z,4208.00
2022-10-13T11:08:35.987Z,4220.00
2022-10-13T11:09:35.989Z,4068.00
2022-10-13T11:10:35.959Z,4016.00
2022-10-13T11:11:37.750Z,4076.00
2022-10-13T11:12:35.956Z,4100.00
2022-10-13T11:13:35.920Z,3924.00
2022-10-13T11:14:35.924Z,3596.00
2022-10-13T11:15:35.925Z,3632.00
2022-10-13T11:16:35.893Z,3624.00
2022-10-13T11:17:35.909Z,3376.00
2022-10-13T11:18:35.905Z,3304.00
2022-10-13T11:19:35.864Z,3132.00
2022-10-13T11:20:35.849Z,3076.00
2022-10-13T11:21:35.850Z,3168.00
2022-10-13T11:22:35.852Z,3512.00
2022-10-13T11:23:35.815Z,3708.00
2022-10-13T11:24:35.807Z,3732.00
2022-10-13T11:25:35.818Z,3720.00
2022-10-13T11:26:35.795Z,3700.00
2022-10-13T11:27:35.790Z,3712.00
2022-10-13T11:28:35.814Z,3756.00
2022-10-13T11:29:35.755Z,3908.00
2022-10-13T11:30:35.744Z,4260.00
2022-10-13T11:31:36.285Z,5040.00
2022-10-13T11:32:35.756Z,5784.00
2022-10-13T11:33:35.711Z,6484.00
2022-10-13T11:34:35.703Z,6940.00
2022-10-13T11:35:35.698Z,6768.00
2022-10-13T11:36:35.671Z,6720.00
2022-10-13T11:37:35.688Z,6772.00
2022-10-13T11:38:35.671Z,6500.00
2022-10-13T11:39:35.646Z,5712.00
2022-10-13T11:40:35.634Z,4624.00
2022-10-13T11:41:35.628Z,3828.00
2022-10-13T11:42:35.642Z,3632.00
2022-10-13T11:43:35.605Z,3044.00
2022-10-13T11:44:35.599Z,2232.00
2022-10-13T11:45:35.580Z,1652.00
2022-10-13T11:46:35.576Z,1672.00
2022-10-13T11:47:35.594Z,1920.00
2022-10-13T11:48:35.567Z,2344.00
2022-10-13T11:49:35.534Z,2820.00
2022-10-13T11:50:35.523Z,2660.00
2022-10-13T11:51:35.520Z,2972.00
2022-10-13T11:52:35.549Z,3556.00
2022-10-13T11:53:35.483Z,3812.00
2022-10-13T11:54:35.487Z,4048.00
2022-10-13T11:55:35.504Z,4148.00
2022-10-13T11:56:39.345Z,4264.00
2022-10-13T11:57:35.462Z,4096.00
2022-10-13T11:58:35.444Z,4096.00
2022-10-13T11:59:35.435Z,4096.00
2022-10-13T12:00:35.419Z,3792.00
2022-10-13T12:01:35.406Z,3512.00
2022-10-13T12:02:35.496Z,3664.00
2022-10-13T12:03:35.387Z,4080.00
2022-10-13T12:04:35.390Z,4032.00
2022-10-13T12:05:35.369Z,4312.00
2022-10-13T12:06:35.363Z,5188.00
2022-10-13T12:07:35.926Z,5652.00
2022-10-13T12:08:35.329Z,5732.00
2022-10-13T12:09:35.337Z,5900.00
2022-10-13T12:10:35.316Z,4988.00
2022-10-13T12:11:35.303Z,4624.00
2022-10-13T12:12:36.209Z,4664.00
2022-10-13T12:13:35.486Z,4940.00
2022-10-13T12:14:35.292Z,5404.00
2022-10-13T12:15:35.257Z,5416.00
2022-10-13T12:16:35.260Z,5416.00
2022-10-13T12:17:35.256Z,5496.00
2022-10-13T12:18:35.218Z,5580.00
2022-10-13T12:19:35.202Z,5724.00
2022-10-13T12:20:35.202Z,6056.00
2022-10-13T12:21:35.192Z,5848.00
2022-10-13T12:22:42.865Z,6044.00
2022-10-13T12:23:35.166Z,6244.00
2022-10-13T12:24:35.150Z,6788.00
2022-10-13T12:25:35.144Z,7684.00
2022-10-13T12:26:35.150Z,7596.00
2022-10-13T12:27:35.151Z,7016.00
2022-10-13T12:28:35.171Z,6788.00
2022-10-13T12:29:37.467Z,7172.00
2022-10-13T12:30:35.103Z,7280.00
2022-10-13T12:31:35.078Z,7232.00
2022-10-13T12:32:35.069Z,6540.00
2022-10-13T12:33:35.078Z,6572.00
2022-10-13T12:34:35.075Z,6624.00
2022-10-13T12:35:35.048Z,6852.00
2022-10-13T12:36:35.027Z,6504.00
2022-10-13T12:37:35.023Z,6136.00
2022-10-13T12:38:35.027Z,4616.00
2022-10-13T12:39:35.003Z,4636.00